createdAt,value
2018-10-18T00:01:02.510Z,50.90
2018-10-18T00:03:30.013Z,45.52
2018-10-18T00:05:57.485Z,48.73
2018-10-18T00:08:24.977Z,48.45
2018-10-18T00:10:52.450Z,49.88
2018-10-18T00:13:19.906Z,49.23
2018-10-18T00:15:47.642Z,48.33
2018-10-18T00:18:15.239Z,47.48
2018-10-18T00:20:42.653Z,47.83
2018-10-18T00:23:10.124Z,47.40
2018-10-18T00:25:37.577Z,45.70
2018-10-18T00:28:05.124Z,43.95
2018-10-18T00:30:32.604Z,50.50
2018-10-18T00:33:00.083Z,50.15
2018-10-18T00:35:27.578Z,52.83
2018-10-18T00:37:55.110Z,55.00
2018-10-18T00:40:22.601Z,50.73
2018-10-18T00:42:50.043Z,53.40
2018-10-18T00:45:17.573Z,49.60
2018-10-18T00:47:45.097Z,45.10
2018-10-18T00:50:12.650Z,50.17
2018-10-18T00:52:40.189Z,51.18
2018-10-18T00:55:08.768Z,44.77
2018-10-18T00:57:36.266Z,50.12
2018-10-18T01:00:04.249Z,53.65
2018-10-18T01:02:31.740Z,51.18
2018-10-18T01:04:59.221Z,47.53
2018-10-18T01:07:26.686Z,46.92
2018-10-18T01:09:54.164Z,46.68
2018-10-18T01:12:21.802Z,48.13
2018-10-18T01:14:49.193Z,46.02
2018-10-18T01:17:17.515Z,43.15
2018-10-18T01:19:44.995Z,51.53
2018-10-18T01:22:12.468Z,43.30
2018-10-18T01:24:39.956Z,40.35
2018-10-18T01:27:07.501Z,44.48
2018-10-18T01:29:34.969Z,44.50
2018-10-18T01:32:02.547Z,47.48
2018-10-18T01:34:29.905Z,42.88
2018-10-18T01:36:57.381Z,40.85
2018-10-18T01:39:24.900Z,39.70
2018-10-18T01:41:52.386Z,38.95
2018-10-18T01:44:19.917Z,39.65
2018-10-18T01:46:47.399Z,41.35
2018-10-18T01:49:14.854Z,37.65
2018-10-18T01:51:42.346Z,33.75
2018-10-18T01:54:09.900Z,38.33
2018-10-18T01:56:37.303Z,35.65
2018-10-18T01:59:04.865Z,39.45
2018-10-18T02:01:32.388Z,41.88
2018-10-18T02:04:00.233Z,41.53
2018-10-18T02:06:28.011Z,34.15
2018-10-18T02:08:55.484Z,45.30
2018-10-18T02:11:22.951Z,42.98
2018-10-18T02:13:50.483Z,36.10
2018-10-18T02:16:18.056Z,38.28
2018-10-18T02:18:45.569Z,38.25
2018-10-18T02:21:13.143Z,36.75
2018-10-18T02:23:40.619Z,40.12
2018-10-18T02:26:08.092Z,41.48
2018-10-18T02:28:35.696Z,37.53
2018-10-18T02:31:03.276Z,40.55
2018-10-18T02:33:30.782Z,36.00
2018-10-18T02:35:58.335Z,35.63
2018-10-18T02:38:25.818Z,35.78
2018-10-18T02:40:53.318Z,37.00
2018-10-18T02:43:20.802Z,33.80
2018-10-18T02:45:48.288Z,36.83
2018-10-18T02:48:15.901Z,33.45
2018-10-18T02:50:43.349Z,38.30
2018-10-18T02:53:10.820Z,38.92
2018-10-18T02:55:38.345Z,41.92
2018-10-18T02:58:05.871Z,38.53
2018-10-18T03:00:33.368Z,36.83
2018-10-18T03:03:00.836Z,36.85
2018-10-18T03:05:28.279Z,37.70
2018-10-18T03:07:55.833Z,33.70
2018-10-18T03:10:23.323Z,33.13
2018-10-18T03:12:50.817Z,40.45
2018-10-18T03:15:18.283Z,38.08
2018-10-18T03:17:45.855Z,31.82
2018-10-18T03:20:13.329Z,34.88
2018-10-18T03:22:40.819Z,36.08
2018-10-18T03:25:09.459Z,39.20
2018-10-18T03:27:37.225Z,35.83
2018-10-18T03:30:05.847Z,35.25
2018-10-18T03:32:33.193Z,33.25
2018-10-18T03:35:00.755Z,32.17
2018-10-18T03:37:28.230Z,33.53
2018-10-18T03:39:55.712Z,35.92
2018-10-18T03:42:23.212Z,35.03
2018-10-18T03:44:50.709Z,32.40
2018-10-18T03:47:18.176Z,34.78
2018-10-18T03:49:45.659Z,36.48
2018-10-18T03:52:13.152Z,35.48
2018-10-18T03:54:40.682Z,36.58
2018-10-18T03:57:08.188Z,30.43
2018-10-18T03:59:35.679Z,36.17
2018-10-18T04:02:03.263Z,36.15
2018-10-18T04:04:30.739Z,38.58
2018-10-18T04:06:58.227Z,33.38
2018-10-18T04:09:25.724Z,41.55
2018-10-18T04:11:53.256Z,38.15
2018-10-18T04:14:20.645Z,34.98
2018-10-18T04:16:48.121Z,38.10
2018-10-18T04:19:15.728Z,37.25
2018-10-18T04:21:43.226Z,33.55
2018-10-18T04:24:10.724Z,36.75
2018-10-18T04:26:38.216Z,30.68
2018-10-18T04:29:05.696Z,41.40
2018-10-18T04:31:33.175Z,33.25
2018-10-18T04:34:00.650Z,41.42
2018-10-18T04:36:28.126Z,31.65
2018-10-18T04:38:55.604Z,33.25
2018-10-18T04:41:23.075Z,34.95
2018-10-18T04:43:50.534Z,35.55
2018-10-18T04:46:18.020Z,32.17
2018-10-18T04:48:45.545Z,34.13
2018-10-18T04:51:12.949Z,33.00
2018-10-18T04:53:40.466Z,39.67
2018-10-18T04:56:07.981Z,32.88
2018-10-18T04:58:35.469Z,36.20
2018-10-18T05:01:03.060Z,35.08
2018-10-18T05:03:30.535Z,36.28
2018-10-18T05:05:59.506Z,32.23
2018-10-18T05:08:27.426Z,36.13
2018-10-18T05:10:55.210Z,32.35
2018-10-18T05:13:22.776Z,37.08
2018-10-18T05:15:50.324Z,33.13
2018-10-18T05:18:18.096Z,36.70
2018-10-18T05:20:45.960Z,36.30
2018-10-18T05:23:13.474Z,37.25
2018-10-18T05:25:41.146Z,36.48
2018-10-18T05:28:08.541Z,33.35
2018-10-18T05:30:36.114Z,33.18
2018-10-18T05:33:03.711Z,33.13
2018-10-18T05:35:31.231Z,32.93
2018-10-18T05:37:58.707Z,39.27
2018-10-18T05:40:26.222Z,35.58
2018-10-18T05:42:53.733Z,33.15
2018-10-18T05:45:21.233Z,36.25
2018-10-18T05:47:48.693Z,34.08
2018-10-18T05:50:16.179Z,40.20
2018-10-18T05:52:43.661Z,30.82
2018-10-18T05:55:11.927Z,35.30
2018-10-18T05:57:40.060Z,36.38
2018-10-18T06:00:13.193Z,36.30
2018-10-18T06:02:41.325Z,33.75
2018-10-18T06:05:09.687Z,39.42
2018-10-18T06:07:37.257Z,39.03
2018-10-18T06:10:15.088Z,33.53
2018-10-18T06:12:42.669Z,36.00
2018-10-18T06:15:10.244Z,34.35
2018-10-18T06:17:37.822Z,42.30
2018-10-18T06:20:05.800Z,50.90
2018-10-18T06:22:33.389Z,53.73
2018-10-18T06:25:00.908Z,44.60
2018-10-18T06:27:28.450Z,42.35
2018-10-18T06:29:55.971Z,42.73
2018-10-18T06:32:23.495Z,49.80
2018-10-18T06:34:51.013Z,44.15
2018-10-18T06:37:18.626Z,49.67
2018-10-18T06:39:46.073Z,44.13
2018-10-18T06:42:13.686Z,37.20
2018-10-18T06:44:41.245Z,35.33
2018-10-18T06:47:08.889Z,37.65
2018-10-18T06:49:36.522Z,42.85
2018-10-18T06:52:04.367Z,38.23
2018-10-18T06:54:31.916Z,41.28
2018-10-18T06:56:59.461Z,41.42
2018-10-18T06:59:27.765Z,38.88
2018-10-18T07:01:55.264Z,37.35
2018-10-18T07:04:22.786Z,34.40
2018-10-18T07:06:50.340Z,44.95
2018-10-18T07:09:17.874Z,36.08
2018-10-18T07:11:45.438Z,34.03
2018-10-18T07:14:13.055Z,31.10
2018-10-18T07:16:40.635Z,29.50
2018-10-18T07:19:08.227Z,30.40
2018-10-18T07:21:35.808Z,32.40
2018-10-18T07:24:03.527Z,33.13
2018-10-18T07:26:31.152Z,28.83
2018-10-18T07:28:58.743Z,27.37
2018-10-18T07:31:26.949Z,28.23
2018-10-18T07:33:54.507Z,28.03
2018-10-18T07:36:25.349Z,31.87
2018-10-18T07:38:52.973Z,28.40
2018-10-18T07:41:21.626Z,31.60
2018-10-18T07:43:49.163Z,29.70
2018-10-18T07:46:17.551Z,31.90
2018-10-18T07:48:45.166Z,34.90
2018-10-18T07:51:12.872Z,29.67
2018-10-18T07:53:40.562Z,32.43
2018-10-18T07:56:08.064Z,30.40
2018-10-18T07:58:35.733Z,29.23
2018-10-18T08:01:03.364Z,33.63
2018-10-18T08:03:31.714Z,30.50
2018-10-18T08:05:59.280Z,34.33
2018-10-18T08:08:26.892Z,32.50
2018-10-18T08:10:54.662Z,33.20
2018-10-18T08:13:22.240Z,35.43
2018-10-18T08:15:50.758Z,32.27
2018-10-18T08:18:19.747Z,33.10
2018-10-18T08:20:48.142Z,35.50
2018-10-18T08:23:15.781Z,33.57
2018-10-18T08:25:43.422Z,34.73
2018-10-18T08:28:11.221Z,36.17
2018-10-18T08:30:38.809Z,33.70
2018-10-18T08:33:06.417Z,37.90
2018-10-18T08:35:34.027Z,33.20
2018-10-18T08:38:01.786Z,35.70
2018-10-18T08:40:29.207Z,34.57
2018-10-18T08:42:56.865Z,36.60
2018-10-18T08:45:24.392Z,35.80
2018-10-18T08:47:53.362Z,35.33
2018-10-18T08:50:21.388Z,37.93
2018-10-18T08:52:48.972Z,38.00
2018-10-18T08:55:16.644Z,40.47
2018-10-18T08:57:44.150Z,44.20
2018-10-18T09:00:12.378Z,43.90
2018-10-18T09:02:40.860Z,48.27
2018-10-18T09:05:08.742Z,42.47
2018-10-18T09:07:36.824Z,44.80
2018-10-18T09:10:05.300Z,47.30
2018-10-18T09:12:33.276Z,48.07
2018-10-18T09:15:00.837Z,48.20
2018-10-18T09:17:28.405Z,54.40
2018-10-18T09:19:55.985Z,53.30
2018-10-18T09:22:23.556Z,52.90
2018-10-18T09:24:51.161Z,52.97
2018-10-18T09:27:18.673Z,52.03
2018-10-18T09:29:46.279Z,60.70
2018-10-18T09:32:13.835Z,62.63
2018-10-18T09:34:41.370Z,58.80
2018-10-18T09:37:09.056Z,60.80
2018-10-18T09:39:36.544Z,57.67
2018-10-18T09:42:04.801Z,66.90
2018-10-18T09:44:32.417Z,57.70
2018-10-18T09:47:00.004Z,60.27
2018-10-18T09:49:27.591Z,60.03
2018-10-18T09:51:55.162Z,55.13
2018-10-18T09:54:22.781Z,60.53
2018-10-18T09:56:51.114Z,61.03
2018-10-18T09:59:18.641Z,66.03
2018-10-18T10:01:51.675Z,61.87
2018-10-18T10:04:19.340Z,61.00
2018-10-18T10:06:46.928Z,55.60
2018-10-18T10:09:14.491Z,59.37
2018-10-18T10:11:42.204Z,57.93
2018-10-18T10:14:09.666Z,60.07
2018-10-18T10:16:37.455Z,60.27
2018-10-18T10:19:05.128Z,59.27
2018-10-18T10:21:32.748Z,58.10
2018-10-18T10:24:00.302Z,59.70
2018-10-18T10:26:27.897Z,61.30
2018-10-18T10:28:55.417Z,67.17
2018-10-18T10:31:22.964Z,60.00
2018-10-18T10:33:50.531Z,56.60
2018-10-18T10:36:18.160Z,54.13
2018-10-18T10:38:45.696Z,60.40
2018-10-18T10:41:13.556Z,54.17
2018-10-18T10:43:40.912Z,58.30
2018-10-18T10:46:08.549Z,57.70
2018-10-18T10:48:36.116Z,55.50
2018-10-18T10:51:03.728Z,56.10
2018-10-18T10:53:31.297Z,55.03
2018-10-18T10:55:58.852Z,50.67
2018-10-18T10:58:26.488Z,58.40
2018-10-18T11:01:25.790Z,56.50
2018-10-18T11:03:54.636Z,55.60
2018-10-18T11:06:22.506Z,59.63
2018-10-18T11:08:50.102Z,57.50
2018-10-18T11:11:18.132Z,57.47
2018-10-18T11:13:45.773Z,53.90
2018-10-18T11:16:13.381Z,60.17
2018-10-18T11:18:41.353Z,54.03
2018-10-18T11:21:10.782Z,56.57
2018-10-18T11:23:38.340Z,53.50
2018-10-18T11:26:06.084Z,52.83
2018-10-18T11:28:33.605Z,49.93
2018-10-18T11:31:01.262Z,57.93
2018-10-18T11:33:28.823Z,55.63
2018-10-18T11:35:56.477Z,59.37
2018-10-18T11:38:24.000Z,60.37
2018-10-18T11:40:51.561Z,59.30
2018-10-18T11:43:19.108Z,56.50
2018-10-18T11:45:46.662Z,57.57
2018-10-18T11:48:14.776Z,56.83
2018-10-18T11:50:42.703Z,55.17
2018-10-18T11:53:10.360Z,58.20
2018-10-18T11:55:37.997Z,61.30
2018-10-18T11:58:06.609Z,54.77
2018-10-18T12:00:34.162Z,55.93
2018-10-18T12:03:01.741Z,53.37
2018-10-18T12:05:29.413Z,59.33
2018-10-18T12:07:57.100Z,57.10
2018-10-18T12:10:24.672Z,54.70
2018-10-18T12:12:52.199Z,61.03
2018-10-18T12:15:19.749Z,72.50
2018-10-18T12:17:47.288Z,59.97
2018-10-18T12:20:16.002Z,66.10
2018-10-18T12:22:43.518Z,60.83
2018-10-18T12:25:11.858Z,68.53
2018-10-18T12:27:39.516Z,61.00
2018-10-18T12:30:07.839Z,59.20
2018-10-18T12:32:35.869Z,66.60
2018-10-18T12:35:03.554Z,61.87
2018-10-18T12:37:31.073Z,63.97
2018-10-18T12:39:58.644Z,58.37
2018-10-18T12:42:26.201Z,60.30
2018-10-18T12:44:53.759Z,60.53
2018-10-18T12:47:21.338Z,62.77
2018-10-18T12:49:48.875Z,61.40
2018-10-18T12:52:16.435Z,61.17
2018-10-18T12:54:43.968Z,63.70
2018-10-18T12:57:12.399Z,58.07
2018-10-18T12:59:39.971Z,58.23
2018-10-18T13:02:07.665Z,58.57
2018-10-18T13:04:35.621Z,62.13
2018-10-18T13:07:03.646Z,62.23
2018-10-18T13:09:31.235Z,59.90
2018-10-18T13:11:59.688Z,58.00
2018-10-18T13:14:28.142Z,60.83
2018-10-18T13:16:55.849Z,60.87
2018-10-18T13:19:23.431Z,58.20
2018-10-18T13:21:50.960Z,57.23
2018-10-18T13:24:18.642Z,52.23
2018-10-18T13:26:46.126Z,51.73
2018-10-18T13:29:13.838Z,57.93
2018-10-18T13:31:41.358Z,59.40
2018-10-18T13:34:08.888Z,55.93
2018-10-18T13:36:36.503Z,54.47
2018-10-18T13:39:07.443Z,56.07
2018-10-18T13:41:35.006Z,50.57
2018-10-18T13:44:02.576Z,55.33
2018-10-18T13:46:30.179Z,58.97
2018-10-18T13:48:57.736Z,65.07
2018-10-18T13:51:25.303Z,58.80
2018-10-18T13:53:52.907Z,63.10
2018-10-18T13:56:20.411Z,63.20
2018-10-18T13:58:47.935Z,62.53
2018-10-18T14:01:15.490Z,62.70
2018-10-18T14:03:43.040Z,64.90
2018-10-18T14:06:10.593Z,69.07
2018-10-18T14:08:38.170Z,77.57
2018-10-18T14:11:05.782Z,72.97
2018-10-18T14:13:33.254Z,71.83
2018-10-18T14:16:00.796Z,71.70
2018-10-18T14:18:28.342Z,80.30
2018-10-18T14:20:55.870Z,82.00
2018-10-18T14:23:23.373Z,76.10
2018-10-18T14:25:50.957Z,76.40
2018-10-18T14:28:18.598Z,79.40
2018-10-18T14:30:46.261Z,77.57
2018-10-18T14:33:13.835Z,81.17
2018-10-18T14:35:41.380Z,82.40
2018-10-18T14:38:09.066Z,81.60
2018-10-18T14:40:36.528Z,85.20
2018-10-18T14:43:04.139Z,83.73
2018-10-18T14:45:31.690Z,78.53
2018-10-18T14:47:59.240Z,84.90
2018-10-18T14:50:26.837Z,81.57
2018-10-18T14:52:54.353Z,81.53
2018-10-18T14:55:21.953Z,83.87
2018-10-18T14:57:49.633Z,81.00
2018-10-18T15:00:17.189Z,84.80
2018-10-18T15:02:44.719Z,83.93
2018-10-18T15:05:12.999Z,84.97
2018-10-18T15:07:40.902Z,81.30
2018-10-18T15:10:12.522Z,88.53
2018-10-18T15:12:40.491Z,93.90
2018-10-18T15:15:08.971Z,85.57
2018-10-18T15:17:36.520Z,91.57
2018-10-18T15:20:05.453Z,88.03
2018-10-18T15:22:32.960Z,88.07
2018-10-18T15:25:00.536Z,93.50
2018-10-18T15:27:28.354Z,88.03
2018-10-18T15:29:55.766Z,97.20
2018-10-18T15:32:23.371Z,100.27
2018-10-18T15:34:50.966Z,137.97
2018-10-18T15:37:18.627Z,100.70
2018-10-18T15:39:46.270Z,127.03
2018-10-18T15:42:13.825Z,114.30
2018-10-18T15:44:41.420Z,100.25
2018-10-18T15:47:09.129Z,98.72
2018-10-18T15:49:36.645Z,106.58
2018-10-18T15:52:04.389Z,110.95
2018-10-18T15:54:32.240Z,109.75
2018-10-18T15:56:59.842Z,115.47
2018-10-18T15:59:27.379Z,111.70
2018-10-18T16:01:54.960Z,113.97
2018-10-18T16:04:22.518Z,116.42
2018-10-18T16:06:50.110Z,115.70
2018-10-18T16:09:17.656Z,113.83
2018-10-18T16:11:45.234Z,107.67
2018-10-18T16:14:12.901Z,121.37
2018-10-18T16:16:40.370Z,119.02
2018-10-18T16:19:07.946Z,115.12
2018-10-18T16:21:35.612Z,122.82
2018-10-18T16:24:03.428Z,127.10
2018-10-18T16:26:31.027Z,119.70
2018-10-18T16:28:58.972Z,138.68
2018-10-18T16:31:26.529Z,131.57
2018-10-18T16:33:54.126Z,119.82
2018-10-18T16:36:21.689Z,130.32
2018-10-18T16:38:49.285Z,126.25
2018-10-18T16:41:17.010Z,119.47
2018-10-18T16:43:44.507Z,113.65
2018-10-18T16:46:12.118Z,129.55
2018-10-18T16:48:39.710Z,121.77
2018-10-18T16:51:07.284Z,120.08
2018-10-18T16:53:34.915Z,126.95
2018-10-18T16:56:02.892Z,111.05
2018-10-18T16:58:30.461Z,124.92
2018-10-18T17:00:58.261Z,115.25
2018-10-18T17:03:25.862Z,112.17
2018-10-18T17:05:53.395Z,123.25
2018-10-18T17:08:21.098Z,131.55
2018-10-18T17:10:48.572Z,122.80
2018-10-18T17:13:16.171Z,135.35
2018-10-18T17:15:43.745Z,146.75
2018-10-18T17:18:11.419Z,159.57
2018-10-18T17:20:39.067Z,118.57
2018-10-18T17:23:06.535Z,117.77
2018-10-18T17:25:34.209Z,124.50
2018-10-18T17:28:02.103Z,129.05
2018-10-18T17:30:29.659Z,107.45
2018-10-18T17:32:57.248Z,106.10
2018-10-18T17:35:24.789Z,120.65
2018-10-18T17:37:52.390Z,111.32
2018-10-18T17:40:20.241Z,112.28
2018-10-18T17:42:47.742Z,105.52
2018-10-18T17:45:15.327Z,102.80
2018-10-18T17:47:44.049Z,113.00
2018-10-18T17:50:11.712Z,100.40
2018-10-18T17:52:39.276Z,104.95
2018-10-18T17:55:07.726Z,101.42
2018-10-18T17:57:35.773Z,99.67
2018-10-18T18:00:05.443Z,112.47
2018-10-18T18:02:33.037Z,97.15
2018-10-18T18:05:00.583Z,95.15
2018-10-18T18:07:28.158Z,96.85
2018-10-18T18:09:55.762Z,102.95
2018-10-18T18:12:23.336Z,88.22
2018-10-18T18:14:50.892Z,98.90
2018-10-18T18:17:18.671Z,91.15
2018-10-18T18:19:46.302Z,79.90
2018-10-18T18:22:13.945Z,102.55
2018-10-18T18:24:42.896Z,91.32
2018-10-18T18:27:10.501Z,95.92
2018-10-18T18:29:38.089Z,98.70
2018-10-18T18:32:05.756Z,106.50
2018-10-18T18:34:33.269Z,110.12
2018-10-18T18:37:00.824Z,109.03
2018-10-18T18:39:28.428Z,100.35
2018-10-18T18:41:55.965Z,98.00
2018-10-18T18:44:23.532Z,98.58
2018-10-18T18:46:51.074Z,111.08
2018-10-18T18:49:18.707Z,100.87
2018-10-18T18:51:46.254Z,107.35
2018-10-18T18:54:13.817Z,105.25
2018-10-18T18:56:41.380Z,93.35
2018-10-18T18:59:08.932Z,112.17
2018-10-18T19:01:36.483Z,115.60
2018-10-18T19:04:04.797Z,106.00
2018-10-18T19:06:32.480Z,104.05
2018-10-18T19:09:00.526Z,99.52
2018-10-18T19:11:28.048Z,97.92
2018-10-18T19:13:55.666Z,99.67
2018-10-18T19:16:24.279Z,109.15
2018-10-18T19:18:51.811Z,101.20
2018-10-18T19:21:19.350Z,103.70
2018-10-18T19:23:46.891Z,107.75
2018-10-18T19:26:14.453Z,100.20
2018-10-18T19:28:42.048Z,81.78
2018-10-18T19:31:09.553Z,88.07
2018-10-18T19:33:37.091Z,81.10
2018-10-18T19:36:04.699Z,84.30
2018-10-18T19:38:32.317Z,72.82
2018-10-18T19:40:59.790Z,84.55
2018-10-18T19:43:27.380Z,74.87
2018-10-18T19:45:54.958Z,81.50
2018-10-18T19:48:22.459Z,65.83
2018-10-18T19:50:50.846Z,67.72
2018-10-18T19:53:18.314Z,67.58
2018-10-18T19:55:45.943Z,69.90
2018-10-18T19:58:13.567Z,68.57
2018-10-18T20:00:41.022Z,67.75
2018-10-18T20:03:08.588Z,81.87
2018-10-18T20:05:36.314Z,67.65
2018-10-18T20:08:04.131Z,71.53
2018-10-18T20:10:31.787Z,64.10
2018-10-18T20:12:59.574Z,60.48
2018-10-18T20:15:26.998Z,66.35
2018-10-18T20:17:54.531Z,65.62
2018-10-18T20:20:22.302Z,59.13
2018-10-18T20:22:49.875Z,50.30
2018-10-18T20:25:17.421Z,48.02
2018-10-18T20:27:44.953Z,61.63
2018-10-18T20:30:13.948Z,44.40
2018-10-18T20:32:42.198Z,55.92
2018-10-18T20:35:11.326Z,47.55
2018-10-18T20:37:39.565Z,51.68
2018-10-18T20:40:09.494Z,43.92
2018-10-18T20:42:37.069Z,43.58
2018-10-18T20:45:05.552Z,45.98
2018-10-18T20:47:33.234Z,42.23
2018-10-18T20:50:00.652Z,37.13
2018-10-18T20:52:28.222Z,45.00
2018-10-18T20:54:55.800Z,48.38
2018-10-18T20:57:23.406Z,47.20
2018-10-18T20:59:51.029Z,50.35
2018-10-18T21:02:18.765Z,49.38
2018-10-18T21:04:46.312Z,43.65
2018-10-18T21:07:14.538Z,42.38
2018-10-18T21:09:42.653Z,45.70
2018-10-18T21:12:10.255Z,50.17
2018-10-18T21:14:37.909Z,45.65
2018-10-18T21:17:05.916Z,48.17
2018-10-18T21:19:33.389Z,39.95
2018-10-18T21:22:02.328Z,47.95
2018-10-18T21:24:30.165Z,49.93
2018-10-18T21:26:58.651Z,50.58
2018-10-18T21:29:26.165Z,47.55
2018-10-18T21:31:53.808Z,49.58
2018-10-18T21:34:21.401Z,48.58
2018-10-18T21:36:49.215Z,53.80
2018-10-18T21:39:32.598Z,54.45
2018-10-18T21:42:01.247Z,41.05
2018-10-18T21:44:30.484Z,47.23
2018-10-18T21:46:58.577Z,48.30
2018-10-18T21:49:26.808Z,49.05
2018-10-18T21:51:54.367Z,47.13
2018-10-18T21:54:22.550Z,51.48
2018-10-18T21:56:50.357Z,45.92
2018-10-18T21:59:17.960Z,48.35
2018-10-18T22:01:46.222Z,45.70
2018-10-18T22:04:14.127Z,54.15
2018-10-18T22:06:41.689Z,52.45
2018-10-18T22:09:09.255Z,45.05
2018-10-18T22:11:37.938Z,45.92
2018-10-18T22:14:06.412Z,48.38
2018-10-18T22:16:33.966Z,51.65
2018-10-18T22:19:01.939Z,51.28
2018-10-18T22:21:29.481Z,56.40
2018-10-18T22:23:57.091Z,42.30
2018-10-18T22:26:24.558Z,46.05
2018-10-18T22:28:52.114Z,47.05
2018-10-18T22:31:19.614Z,50.98
2018-10-18T22:33:47.179Z,39.53
2018-10-18T22:36:14.798Z,41.85
2018-10-18T22:38:42.413Z,40.40
2018-10-18T22:41:10.136Z,46.80
2018-10-18T22:43:38.327Z,43.65
2018-10-18T22:46:06.623Z,45.23
2018-10-18T22:48:34.258Z,42.20
2018-10-18T22:51:01.921Z,43.83
2018-10-18T22:53:29.498Z,47.98
2018-10-18T22:55:57.029Z,41.83
2018-10-18T22:58:24.803Z,41.50
2018-10-18T23:00:52.355Z,45.20
2018-10-18T23:03:20.649Z,43.63
2018-10-18T23:05:48.727Z,46.45
2018-10-18T23:08:16.223Z,43.58
2018-10-18T23:10:44.242Z,42.45
2018-10-18T23:13:11.809Z,38.15
2018-10-18T23:15:40.312Z,41.55
2018-10-18T23:18:08.877Z,42.38
2018-10-18T23:20:36.954Z,40.73
2018-10-18T23:23:04.763Z,38.63
2018-10-18T23:25:33.828Z,34.08
2018-10-18T23:28:01.790Z,40.12
2018-10-18T23:30:29.940Z,35.58
2018-10-18T23:32:57.568Z,37.60
2018-10-18T23:35:25.027Z,38.78
2018-10-18T23:37:52.584Z,43.85
2018-10-18T23:40:20.271Z,38.40
2018-10-18T23:42:47.782Z,41.25
2018-10-18T23:45:15.412Z,36.70
2018-10-18T23:47:42.879Z,30.12
2018-10-18T23:50:10.431Z,34.33
2018-10-18T23:52:37.989Z,35.08
2018-10-18T23:55:05.667Z,37.53
2018-10-18T23:57:33.198Z,41.37
